createdAt,value
2019-03-28T00:06:38.131Z,7.47
2019-03-28T00:13:24.118Z,6.83
2019-03-28T00:35:51.261Z,6.93
2019-03-28T00:42:37.897Z,6.80
2019-03-28T00:49:23.054Z,6.70
2019-03-28T00:56:07.971Z,7.37
2019-03-28T01:02:52.828Z,7.22
2019-03-28T01:09:40.052Z,6.40
2019-03-28T01:16:25.149Z,7.00
2019-03-28T01:23:09.998Z,7.67
2019-03-28T01:29:54.842Z,7.57
2019-03-28T01:36:40.750Z,7.60
2019-03-28T01:43:25.938Z,7.87
2019-03-28T01:50:11.034Z,8.23
2019-03-28T01:57:09.922Z,8.63
2019-03-28T02:03:44.087Z,8.73
2019-03-28T02:10:28.931Z,7.43
2019-03-28T02:17:13.853Z,7.90
2019-03-28T02:23:59.530Z,8.10
2019-03-28T02:30:44.658Z,7.83
2019-03-28T02:37:29.594Z,7.43
2019-03-28T02:44:14.600Z,8.43
2019-03-28T02:50:59.460Z,8.30
2019-03-28T02:57:44.475Z,8.35
2019-03-28T03:04:29.420Z,7.87
2019-03-28T03:11:14.270Z,9.13
2019-03-28T03:17:59.123Z,9.00
2019-03-28T03:24:43.973Z,7.73
2019-03-28T03:31:28.995Z,7.57
2019-03-28T03:38:13.844Z,8.20
2019-03-28T03:44:58.694Z,7.83
2019-03-28T03:51:46.497Z,8.50
2019-03-28T03:58:30.531Z,8.20
2019-03-28T04:05:15.387Z,7.23
2019-03-28T04:12:00.356Z,8.17
2019-03-28T04:18:45.245Z,7.20
2019-03-28T04:25:30.103Z,7.47
2019-03-28T04:32:15.058Z,7.53
2019-03-28T04:38:59.907Z,8.20
2019-03-28T04:45:44.762Z,8.57
2019-03-28T04:52:31.981Z,8.40
2019-03-28T04:59:16.166Z,8.33
2019-03-28T05:06:01.118Z,7.90
2019-03-28T05:12:46.052Z,9.13
2019-03-28T05:19:30.995Z,8.60
2019-03-28T05:26:15.918Z,9.40
2019-03-28T05:33:00.778Z,9.67
2019-03-28T05:39:45.682Z,9.63
2019-03-28T05:46:30.606Z,9.60
2019-03-28T05:53:15.546Z,9.43
2019-03-28T06:00:00.441Z,8.50
2019-03-28T06:06:45.431Z,8.17
2019-03-28T06:13:30.715Z,8.87
2019-03-28T06:20:15.943Z,7.33
2019-03-28T06:27:00.795Z,5.97
2019-03-28T06:33:45.719Z,5.90
2019-03-28T06:40:31.354Z,6.45
2019-03-28T06:47:16.340Z,7.10
2019-03-28T06:54:01.340Z,6.80
2019-03-28T07:00:46.203Z,6.75
2019-03-28T07:07:31.067Z,6.90
2019-03-28T07:14:15.930Z,7.33
2019-03-28T07:21:00.800Z,6.95
2019-03-28T07:27:46.005Z,8.30
2019-03-28T07:34:31.383Z,7.42
2019-03-28T07:41:16.621Z,6.53
2019-03-28T07:48:01.692Z,7.33
2019-03-28T07:54:48.840Z,7.70
2019-03-28T08:01:33.158Z,7.30
2019-03-28T08:08:18.166Z,7.90
2019-03-28T08:15:05.007Z,6.45
2019-03-28T08:21:49.866Z,7.42
2019-03-28T08:28:34.736Z,6.78
2019-03-28T08:35:19.727Z,7.62
2019-03-28T08:42:04.603Z,7.12
2019-03-28T08:48:49.641Z,7.00
2019-03-28T08:55:34.706Z,7.22
2019-03-28T09:02:19.563Z,7.00
2019-03-28T09:09:06.474Z,7.28
2019-03-28T09:15:51.491Z,6.87
2019-03-28T09:22:38.999Z,6.90
2019-03-28T09:29:23.263Z,6.60
2019-03-28T09:36:08.126Z,6.30
2019-03-28T09:42:53.200Z,6.17
2019-03-28T09:49:38.139Z,5.75
2019-03-28T09:56:22.998Z,5.40
2019-03-28T10:03:08.258Z,6.53
2019-03-28T10:09:53.555Z,5.70
2019-03-28T10:16:40.319Z,5.65
2019-03-28T10:23:25.219Z,6.17
2019-03-28T10:30:11.784Z,5.97
2019-03-28T10:36:57.700Z,6.25
2019-03-28T10:43:43.388Z,6.53
2019-03-28T10:50:40.238Z,6.12
2019-03-28T10:57:29.521Z,6.10
2019-03-28T11:04:02.703Z,6.55
2019-03-28T11:10:47.967Z,6.17
2019-03-28T11:17:32.863Z,6.40
2019-03-28T11:24:17.926Z,5.70
2019-03-28T11:31:02.886Z,4.28
2019-03-28T11:37:48.063Z,3.15
2019-03-28T11:44:33.335Z,3.63
2019-03-28T11:51:18.422Z,4.03
2019-03-28T11:58:03.688Z,3.67
2019-03-28T12:04:49.359Z,3.50
2019-03-28T12:11:34.838Z,4.13
2019-03-28T12:18:19.968Z,2.07
2019-03-28T12:25:07.998Z,3.10
2019-03-28T12:31:52.937Z,4.00
2019-03-28T12:38:38.836Z,4.03
2019-03-28T12:45:24.746Z,4.05
2019-03-28T12:52:09.746Z,4.47
2019-03-28T12:58:54.807Z,3.67
2019-03-28T13:05:39.668Z,3.67
2019-03-28T13:12:24.844Z,3.75
2019-03-28T13:19:09.936Z,5.33
2019-03-28T13:25:54.977Z,4.00
2019-03-28T13:32:41.994Z,3.95
2019-03-28T13:39:26.675Z,5.42
2019-03-28T13:46:11.682Z,5.58
2019-03-28T13:52:56.542Z,5.22
2019-03-28T13:59:41.637Z,4.93
2019-03-28T14:06:26.699Z,5.17
2019-03-28T14:13:11.654Z,4.87
2019-03-28T14:19:56.735Z,3.70
2019-03-28T14:26:42.029Z,5.28
2019-03-28T14:33:27.369Z,3.90
2019-03-28T14:40:12.654Z,4.70
2019-03-28T14:46:59.674Z,5.47
2019-03-28T14:53:45.295Z,4.53
2019-03-28T15:00:35.968Z,5.45
2019-03-28T15:07:22.456Z,4.93
2019-03-28T15:14:07.804Z,4.65
2019-03-28T15:20:53.235Z,5.07
2019-03-28T15:27:38.227Z,4.45
2019-03-28T15:34:23.126Z,4.80
2019-03-28T15:41:08.063Z,4.17
2019-03-28T15:47:52.927Z,4.83
2019-03-28T15:54:37.774Z,4.87
2019-03-28T16:01:24.686Z,4.70
2019-03-28T16:08:10.102Z,3.93
2019-03-28T16:14:55.840Z,3.60
2019-03-28T16:21:40.982Z,3.50
2019-03-28T16:28:28.149Z,3.33
2019-03-28T16:35:12.530Z,2.70
2019-03-28T16:41:57.383Z,3.97
2019-03-28T16:48:45.176Z,2.70
2019-03-28T16:55:30.131Z,2.40
2019-03-28T17:02:15.130Z,3.77
2019-03-28T17:09:00.916Z,4.20
2019-03-28T17:15:48.454Z,4.37
2019-03-28T17:22:33.739Z,6.17
2019-03-28T17:29:18.602Z,4.30
2019-03-28T17:36:04.704Z,4.80
2019-03-28T17:42:50.200Z,4.53
2019-03-28T17:49:35.550Z,4.57
2019-03-28T17:56:21.704Z,4.60
2019-03-28T18:03:09.608Z,5.07
2019-03-28T18:09:54.609Z,4.07
2019-03-28T18:16:39.542Z,3.83
2019-03-28T18:23:24.403Z,4.07
2019-03-28T18:30:09.824Z,4.27
2019-03-28T18:36:54.690Z,3.73
2019-03-28T18:43:40.107Z,4.07
2019-03-28T18:50:25.064Z,4.43
2019-03-28T18:57:09.984Z,3.97
2019-03-28T19:03:55.468Z,4.63
2019-03-28T19:10:42.146Z,4.33
2019-03-28T19:17:27.359Z,4.50
2019-03-28T19:24:13.634Z,3.77
2019-03-28T19:30:58.659Z,4.10
2019-03-28T19:37:44.875Z,4.70
2019-03-28T19:44:30.668Z,4.20
2019-03-28T19:51:16.246Z,4.90
2019-03-28T19:58:01.243Z,5.70
2019-03-28T20:04:46.836Z,4.50
2019-03-28T20:11:31.921Z,4.43
2019-03-28T20:18:16.774Z,4.53
2019-03-28T20:25:01.645Z,5.23
2019-03-28T20:31:48.489Z,4.57
2019-03-28T20:38:33.550Z,4.20
2019-03-28T20:45:19.654Z,4.83
2019-03-28T20:52:05.682Z,6.23
2019-03-28T20:58:50.624Z,4.63
2019-03-28T21:05:35.586Z,4.70
2019-03-28T21:12:20.519Z,5.37
2019-03-28T21:19:05.374Z,5.17
2019-03-28T21:25:52.191Z,5.40
2019-03-28T21:32:37.675Z,4.93
2019-03-28T21:39:23.587Z,5.40
2019-03-28T21:46:08.434Z,5.00
2019-03-28T21:52:53.309Z,4.87
2019-03-28T21:59:38.162Z,4.47
2019-03-28T22:06:23.412Z,4.40
2019-03-28T22:13:12.145Z,4.30
2019-03-28T22:19:58.015Z,4.83
2019-03-28T22:26:45.930Z,3.83
2019-03-28T22:33:29.510Z,4.37
2019-03-28T22:40:14.775Z,4.33
2019-03-28T22:46:59.726Z,4.33
2019-03-28T22:53:44.576Z,5.00
2019-03-28T23:00:44.754Z,4.90
2019-03-28T23:07:31.444Z,5.50
2019-03-28T23:14:16.595Z,5.33
2019-03-28T23:21:01.518Z,5.63
2019-03-28T23:27:46.462Z,5.45
2019-03-28T23:34:31.370Z,5.50
2019-03-28T23:41:16.386Z,5.70
2019-03-28T23:48:03.335Z,6.60
2019-03-28T23:54:49.560Z,7.40
